createdAt,value
2019-03-23T00:01:00.280Z,5.13
2019-03-23T00:03:35.434Z,5.10
2019-03-23T00:06:09.496Z,5.08
2019-03-23T00:08:41.463Z,5.05
2019-03-23T00:11:17.213Z,5.02
2019-03-23T00:13:51.534Z,5.00
2019-03-23T00:16:25.789Z,5.00
2019-03-23T00:18:57.915Z,5.00
2019-03-23T00:21:29.324Z,5.04
2019-03-23T00:24:00.942Z,5.10
2019-03-23T00:26:38.182Z,5.11
2019-03-23T00:29:15.124Z,5.10
2019-03-23T00:31:48.727Z,5.16
2019-03-23T00:34:20.418Z,5.19
2019-03-23T00:36:51.746Z,5.32
2019-03-23T00:39:27.800Z,5.41
2019-03-23T00:41:59.654Z,5.52
2019-03-23T00:44:33.097Z,5.82
2019-03-23T00:47:04.424Z,6.17
2019-03-23T00:49:40.436Z,6.33
2019-03-23T00:52:15.199Z,6.43
2019-03-23T00:54:51.174Z,6.81
2019-03-23T00:57:22.473Z,7.22
2019-03-23T00:59:53.848Z,7.57
2019-03-23T01:02:25.717Z,7.65
2019-03-23T01:04:57.055Z,7.66
2019-03-23T01:07:28.363Z,7.89
2019-03-23T01:10:00.327Z,7.87
2019-03-23T01:12:33.050Z,8.05
2019-03-23T01:15:04.767Z,8.46
2019-03-23T01:17:37.582Z,8.54
2019-03-23T01:20:09.646Z,8.52
2019-03-23T01:22:41.322Z,8.45
2019-03-23T01:25:13.001Z,8.47
2019-03-23T01:27:44.567Z,8.44
2019-03-23T01:30:16.195Z,8.46
2019-03-23T01:32:47.998Z,8.42
2019-03-23T01:35:21.953Z,8.35
2019-03-23T01:37:53.432Z,8.25
2019-03-23T01:40:25.251Z,8.43
2019-03-23T01:42:57.993Z,8.40
2019-03-23T01:45:29.324Z,8.32
2019-03-23T01:48:01.030Z,8.27
2019-03-23T01:50:33.440Z,8.33
2019-03-23T01:53:04.851Z,8.38
2019-03-23T01:55:36.505Z,8.39
2019-03-23T01:58:07.841Z,8.59
2019-03-23T02:00:39.191Z,8.79
2019-03-23T02:03:11.504Z,8.91
2019-03-23T02:05:42.967Z,9.01
2019-03-23T02:08:14.317Z,8.93
2019-03-23T02:10:45.687Z,8.98
2019-03-23T02:13:20.151Z,9.03
2019-03-23T02:15:51.510Z,8.96
2019-03-23T02:18:22.874Z,8.91
2019-03-23T02:20:55.215Z,8.87
2019-03-23T02:23:27.629Z,8.99
2019-03-23T02:25:59.040Z,9.13
2019-03-23T02:28:30.846Z,9.13
2019-03-23T02:31:03.718Z,9.09
2019-03-23T02:33:35.099Z,8.85
2019-03-23T02:36:09.642Z,8.80
2019-03-23T02:38:41.162Z,8.56
2019-03-23T02:41:12.973Z,8.46
2019-03-23T02:43:44.585Z,8.28
2019-03-23T02:46:15.958Z,7.96
2019-03-23T02:48:48.722Z,7.73
2019-03-23T02:51:22.109Z,7.51
2019-03-23T02:53:53.501Z,7.23
2019-03-23T02:56:24.885Z,7.00
2019-03-23T02:58:56.605Z,6.83
2019-03-23T03:01:27.986Z,6.63
2019-03-23T03:03:59.626Z,6.50
2019-03-23T03:06:30.918Z,6.34
2019-03-23T03:09:02.256Z,6.24
2019-03-23T03:11:34.758Z,6.13
2019-03-23T03:14:06.576Z,6.06
2019-03-23T03:16:37.932Z,5.95
2019-03-23T03:19:09.416Z,5.85
2019-03-23T03:21:41.174Z,5.71
2019-03-23T03:24:12.566Z,5.61
2019-03-23T03:26:43.870Z,5.55
2019-03-23T03:29:15.212Z,5.45
2019-03-23T03:31:46.940Z,5.36
2019-03-23T03:34:18.326Z,5.33
2019-03-23T03:36:49.749Z,5.35
2019-03-23T03:39:21.402Z,5.33
2019-03-23T03:41:52.731Z,5.26
2019-03-23T03:44:24.098Z,5.18
2019-03-23T03:46:56.135Z,5.10
2019-03-23T03:49:27.633Z,5.02
2019-03-23T03:51:59.041Z,4.97
2019-03-23T03:54:30.705Z,4.97
2019-03-23T03:57:02.090Z,4.91
2019-03-23T03:59:33.505Z,4.84
2019-03-23T04:02:05.222Z,4.77
2019-03-23T04:04:36.517Z,4.70
2019-03-23T04:07:07.866Z,4.66
2019-03-23T04:09:40.492Z,4.64
2019-03-23T04:12:12.161Z,4.60
2019-03-23T04:14:43.559Z,4.58
2019-03-23T04:17:16.521Z,4.56
2019-03-23T04:19:47.869Z,4.56
2019-03-23T04:22:19.296Z,4.58
2019-03-23T04:24:51.058Z,4.56
2019-03-23T04:27:22.592Z,4.53
2019-03-23T04:29:53.889Z,4.48
2019-03-23T04:32:25.303Z,4.45
2019-03-23T04:34:56.877Z,4.46
2019-03-23T04:37:29.457Z,4.47
2019-03-23T04:40:01.254Z,4.49
2019-03-23T04:42:32.716Z,4.48
2019-03-23T04:45:04.075Z,4.42
2019-03-23T04:47:35.451Z,4.39
2019-03-23T04:50:07.896Z,4.33
2019-03-23T04:52:39.286Z,4.35
2019-03-23T04:55:11.643Z,4.35
2019-03-23T04:57:43.516Z,4.37
2019-03-23T05:00:15.304Z,4.35
2019-03-23T05:02:46.708Z,4.33
2019-03-23T05:05:18.402Z,4.32
2019-03-23T05:07:49.729Z,4.30
2019-03-23T05:10:21.074Z,4.33
2019-03-23T05:12:52.953Z,4.36
2019-03-23T05:15:26.178Z,4.37
2019-03-23T05:17:58.461Z,4.35
2019-03-23T05:20:31.737Z,4.38
2019-03-23T05:23:06.135Z,4.41
2019-03-23T05:25:37.862Z,4.45
2019-03-23T05:28:09.880Z,4.47
2019-03-23T05:30:41.309Z,4.46
2019-03-23T05:33:12.720Z,4.50
2019-03-23T05:35:44.058Z,4.54
2019-03-23T05:38:15.405Z,4.57
2019-03-23T05:40:46.726Z,4.59
2019-03-23T05:43:18.532Z,4.66
2019-03-23T05:45:49.858Z,4.70
2019-03-23T05:48:21.372Z,4.72
2019-03-23T05:50:54.945Z,4.74
2019-03-23T05:53:26.844Z,4.86
2019-03-23T05:55:58.240Z,4.96
2019-03-23T05:58:29.664Z,5.08
2019-03-23T06:01:01.209Z,5.13
2019-03-23T06:03:32.783Z,5.21
2019-03-23T06:06:04.104Z,5.28
2019-03-23T06:08:35.832Z,5.41
2019-03-23T06:11:07.443Z,5.48
2019-03-23T06:13:38.836Z,5.76
2019-03-23T06:16:10.838Z,5.86
2019-03-23T06:18:42.223Z,6.03
2019-03-23T06:21:14.797Z,6.13
2019-03-23T06:23:46.643Z,6.30
2019-03-23T06:26:18.031Z,6.44
2019-03-23T06:28:49.517Z,6.58
2019-03-23T06:31:20.899Z,6.74
2019-03-23T06:33:52.834Z,6.93
2019-03-23T06:36:25.950Z,7.08
2019-03-23T06:39:05.027Z,7.32
2019-03-23T06:41:30.340Z,7.56
2019-03-23T06:44:01.699Z,7.86
2019-03-23T06:46:36.203Z,8.04
2019-03-23T06:49:08.026Z,8.24
2019-03-23T06:51:39.363Z,8.39
2019-03-23T06:54:13.647Z,8.66
2019-03-23T06:56:47.750Z,8.83
2019-03-23T06:59:21.382Z,9.01
2019-03-23T07:01:55.332Z,9.27
2019-03-23T07:04:26.960Z,9.47
2019-03-23T07:07:00.300Z,9.77
2019-03-23T07:09:32.108Z,9.98
2019-03-23T07:12:05.291Z,10.27
2019-03-23T07:14:36.710Z,10.55
2019-03-23T07:17:08.483Z,10.83
2019-03-23T07:19:40.405Z,11.09
2019-03-23T07:22:12.112Z,11.38
2019-03-23T07:24:43.516Z,11.67
2019-03-23T07:27:16.502Z,11.83
2019-03-23T07:29:48.549Z,12.02
2019-03-23T07:32:19.920Z,12.30
2019-03-23T07:34:51.574Z,12.37
2019-03-23T07:37:22.866Z,12.53
2019-03-23T07:40:07.094Z,12.62
2019-03-23T07:42:38.438Z,12.70
2019-03-23T07:45:10.210Z,12.83
2019-03-23T07:47:41.931Z,12.99
2019-03-23T07:50:13.509Z,13.13
2019-03-23T07:52:45.509Z,13.18
2019-03-23T07:55:17.065Z,13.27
2019-03-23T07:57:51.367Z,13.38
2019-03-23T08:00:23.591Z,13.48
2019-03-23T08:02:54.952Z,13.61
2019-03-23T08:05:32.518Z,13.70
2019-03-23T08:08:04.311Z,13.75
2019-03-23T08:10:37.298Z,13.78
2019-03-23T08:13:13.525Z,13.77
2019-03-23T08:15:44.928Z,13.76
2019-03-23T08:18:16.754Z,13.72
2019-03-23T08:20:48.146Z,13.74
2019-03-23T08:23:20.462Z,13.72
2019-03-23T08:26:01.522Z,13.75
2019-03-23T08:28:52.333Z,13.80
2019-03-23T08:31:26.867Z,13.84
2019-03-23T08:33:58.358Z,13.88
2019-03-23T08:36:29.648Z,13.92
2019-03-23T08:39:01.128Z,13.96
2019-03-23T08:41:34.350Z,14.01
2019-03-23T08:44:05.718Z,14.13
2019-03-23T08:46:37.142Z,14.10
2019-03-23T08:49:08.451Z,14.07
2019-03-23T08:51:39.816Z,14.10
2019-03-23T08:54:14.952Z,14.20
2019-03-23T08:56:50.908Z,14.18
2019-03-23T08:59:22.407Z,14.27
2019-03-23T09:01:54.027Z,14.41
2019-03-23T09:04:25.399Z,14.59
2019-03-23T09:06:56.708Z,14.62
2019-03-23T09:09:28.846Z,14.70
2019-03-23T09:12:01.460Z,14.89
2019-03-23T09:14:34.304Z,15.00
2019-03-23T09:17:05.721Z,15.03
2019-03-23T09:19:40.973Z,14.98
2019-03-23T09:22:12.439Z,15.03
2019-03-23T09:24:43.748Z,15.38
2019-03-23T09:27:17.063Z,15.76
2019-03-23T09:29:48.405Z,15.85
2019-03-23T09:32:20.021Z,15.98
2019-03-23T09:35:00.452Z,16.12
2019-03-23T09:37:31.822Z,16.48
2019-03-23T09:40:11.075Z,16.85
2019-03-23T09:42:42.977Z,17.38
2019-03-23T09:45:18.194Z,17.66
2019-03-23T09:47:53.373Z,17.79
2019-03-23T09:50:28.471Z,18.00
2019-03-23T09:53:06.352Z,18.29
2019-03-23T09:55:37.955Z,18.75
2019-03-23T09:58:12.678Z,18.64
2019-03-23T10:00:44.704Z,18.61
2019-03-23T10:03:21.654Z,18.88
2019-03-23T10:05:56.012Z,19.02
2019-03-23T10:08:27.902Z,19.26
2019-03-23T10:10:59.355Z,19.60
2019-03-23T10:13:31.247Z,19.70
2019-03-23T10:16:07.765Z,19.74
2019-03-23T10:18:57.255Z,19.72
2019-03-23T10:21:28.533Z,19.96
2019-03-23T10:24:02.567Z,20.28
2019-03-23T10:26:34.716Z,20.24
2019-03-23T10:29:13.126Z,20.22
2019-03-23T10:31:52.277Z,20.47
2019-03-23T10:34:52.668Z,20.80
2019-03-23T10:38:06.863Z,20.83
2019-03-23T10:40:47.374Z,21.13
2019-03-23T10:43:18.892Z,21.33
2019-03-23T10:45:50.623Z,21.29
2019-03-23T10:48:24.819Z,21.36
2019-03-23T10:51:14.137Z,21.26
2019-03-23T10:53:51.570Z,21.32
2019-03-23T10:56:25.202Z,21.32
2019-03-23T10:58:57.332Z,20.72
2019-03-23T11:01:28.948Z,20.86
2019-03-23T11:04:09.152Z,21.20
2019-03-23T11:06:49.287Z,21.42
2019-03-23T11:09:30.272Z,21.78
2019-03-23T11:12:05.462Z,22.08
2019-03-23T11:14:40.569Z,22.14
2019-03-23T11:17:15.321Z,22.23
2019-03-23T11:19:47.000Z,22.17
2019-03-23T11:22:19.972Z,21.86
2019-03-23T11:24:52.286Z,22.04
2019-03-23T11:27:26.431Z,21.54
2019-03-23T11:30:00.011Z,21.56
2019-03-23T11:32:31.960Z,21.20
2019-03-23T11:35:04.426Z,21.58
2019-03-23T11:37:36.391Z,21.67
2019-03-23T11:40:07.971Z,21.55
2019-03-23T11:42:50.169Z,21.10
2019-03-23T11:45:21.287Z,21.58
2019-03-23T11:47:55.975Z,21.20
2019-03-23T11:50:37.701Z,21.26
2019-03-23T11:53:29.823Z,21.18
2019-03-23T11:56:05.302Z,21.32
2019-03-23T11:58:38.275Z,21.34
2019-03-23T12:01:15.097Z,21.55
2019-03-23T12:03:46.798Z,21.30
2019-03-23T12:06:27.387Z,21.20
2019-03-23T12:08:59.015Z,20.81
2019-03-23T12:11:32.529Z,20.32
2019-03-23T12:14:05.903Z,20.17
2019-03-23T12:16:43.325Z,20.25
2019-03-23T12:19:30.418Z,20.33
2019-03-23T12:22:02.074Z,20.48
2019-03-23T12:24:35.289Z,20.81
2019-03-23T12:27:06.631Z,20.35
2019-03-23T12:29:38.470Z,20.18
2019-03-23T12:32:11.461Z,20.06
2019-03-23T12:34:49.696Z,20.00
2019-03-23T12:37:21.098Z,20.01
2019-03-23T12:39:57.367Z,20.05
2019-03-23T12:42:28.710Z,20.01
2019-03-23T12:45:00.631Z,20.07
2019-03-23T12:47:40.477Z,19.68
2019-03-23T12:50:14.692Z,19.17
2019-03-23T12:52:46.408Z,19.26
2019-03-23T12:55:18.130Z,19.44
2019-03-23T12:57:49.519Z,19.45
2019-03-23T13:00:21.444Z,19.28
2019-03-23T13:02:55.790Z,19.03
2019-03-23T13:05:27.451Z,18.77
2019-03-23T13:07:59.114Z,18.76
2019-03-23T13:10:39.347Z,18.73
2019-03-23T13:13:17.128Z,18.86
2019-03-23T13:15:48.778Z,18.59
2019-03-23T13:18:27.182Z,18.31
2019-03-23T13:20:55.287Z,18.40
2019-03-23T13:23:29.166Z,18.35
2019-03-23T13:26:01.355Z,18.35
2019-03-23T13:28:36.270Z,18.47
2019-03-23T13:31:07.878Z,18.48
2019-03-23T13:33:46.370Z,18.44
2019-03-23T13:36:24.562Z,18.50
2019-03-23T13:38:57.711Z,18.33
2019-03-23T13:41:29.547Z,18.34
2019-03-23T13:44:01.072Z,18.40
2019-03-23T13:46:35.863Z,18.46
2019-03-23T13:49:08.870Z,18.45
2019-03-23T13:51:41.734Z,18.42
2019-03-23T13:54:25.366Z,18.43
2019-03-23T13:56:57.474Z,18.52
2019-03-23T13:59:35.804Z,18.37
2019-03-23T14:02:07.639Z,18.20
2019-03-23T14:04:39.230Z,18.21
2019-03-23T14:07:15.162Z,18.17
2019-03-23T14:09:57.572Z,18.25
2019-03-23T14:13:16.284Z,18.29
2019-03-23T14:16:25.891Z,18.32
2019-03-23T14:19:06.501Z,18.40
2019-03-23T14:21:41.407Z,18.46
2019-03-23T14:24:12.753Z,18.45
2019-03-23T14:26:44.403Z,18.44
2019-03-23T14:29:17.444Z,18.37
2019-03-23T14:31:49.040Z,18.33
2019-03-23T14:34:21.421Z,18.37
2019-03-23T14:37:36.791Z,18.44
2019-03-23T14:40:55.011Z,18.49
2019-03-23T14:43:34.312Z,18.41
2019-03-23T14:46:17.383Z,18.47
2019-03-23T14:48:48.846Z,18.45
2019-03-23T14:51:23.259Z,18.46
2019-03-23T14:53:54.990Z,18.49
2019-03-23T14:56:31.727Z,18.53
2019-03-23T14:59:07.482Z,18.58
2019-03-23T15:01:44.211Z,18.60
2019-03-23T15:04:21.637Z,18.63
2019-03-23T15:06:56.532Z,18.57
2019-03-23T15:09:31.099Z,18.48
2019-03-23T15:12:03.395Z,18.45
2019-03-23T15:14:35.155Z,18.42
2019-03-23T15:17:08.288Z,18.38
2019-03-23T15:19:41.411Z,18.28
2019-03-23T15:22:17.423Z,18.20
2019-03-23T15:24:49.348Z,18.14
2019-03-23T15:27:21.401Z,18.10
2019-03-23T15:29:54.844Z,18.01
2019-03-23T15:32:26.426Z,17.96
2019-03-23T15:34:58.125Z,17.88
2019-03-23T15:37:30.085Z,17.82
2019-03-23T15:40:02.916Z,17.74
2019-03-23T15:42:38.105Z,17.61
2019-03-23T15:45:17.094Z,17.30
2019-03-23T15:47:49.790Z,17.12
2019-03-23T15:50:23.071Z,16.95
2019-03-23T15:52:54.577Z,16.73
2019-03-23T15:55:33.197Z,16.58
2019-03-23T15:58:06.980Z,16.50
2019-03-23T16:00:41.072Z,16.40
2019-03-23T16:03:18.047Z,16.27
2019-03-23T16:05:50.033Z,16.18
2019-03-23T16:08:21.496Z,16.07
2019-03-23T16:10:55.928Z,15.95
2019-03-23T16:13:36.930Z,15.86
2019-03-23T16:16:11.052Z,15.78
2019-03-23T16:18:47.497Z,15.61
2019-03-23T16:21:19.201Z,15.50
2019-03-23T16:23:50.927Z,15.33
2019-03-23T16:26:31.343Z,15.12
2019-03-23T16:29:09.543Z,14.95
2019-03-23T16:31:41.233Z,14.76
2019-03-23T16:34:15.742Z,14.55
2019-03-23T16:36:48.239Z,14.36
2019-03-23T16:39:19.602Z,14.15
2019-03-23T16:41:57.504Z,14.03
2019-03-23T16:44:29.684Z,13.82
2019-03-23T16:47:37.086Z,13.67
2019-03-23T16:53:31.595Z,13.55
2019-03-23T16:56:03.437Z,13.40
2019-03-23T16:58:36.609Z,13.27
2019-03-23T17:01:08.222Z,13.08
2019-03-23T17:03:44.145Z,12.92
2019-03-23T17:06:15.536Z,12.76
2019-03-23T17:08:47.336Z,12.69
2019-03-23T17:11:18.945Z,12.61
2019-03-23T17:13:52.586Z,12.54
2019-03-23T17:16:37.985Z,12.43
2019-03-23T17:19:12.904Z,12.31
2019-03-23T17:21:49.830Z,12.14
2019-03-23T17:24:21.385Z,12.03
2019-03-23T17:26:52.765Z,11.94
2019-03-23T17:29:24.191Z,11.82
2019-03-23T17:31:57.066Z,11.68
2019-03-23T17:34:30.276Z,11.54
2019-03-23T17:37:02.049Z,11.48
2019-03-23T17:39:34.816Z,11.32
2019-03-23T17:42:06.493Z,11.28
2019-03-23T17:44:39.562Z,11.18
2019-03-23T17:47:11.528Z,11.07
2019-03-23T17:49:43.268Z,10.93
2019-03-23T17:52:15.261Z,10.84
2019-03-23T17:54:46.643Z,10.67
2019-03-23T17:57:18.493Z,10.51
2019-03-23T17:59:50.251Z,10.41
2019-03-23T18:02:26.198Z,10.34
2019-03-23T18:04:57.812Z,10.24
2019-03-23T18:07:29.370Z,10.16
2019-03-23T18:10:06.451Z,10.09
2019-03-23T18:12:39.897Z,9.97
2019-03-23T18:15:13.916Z,9.93
2019-03-23T18:17:46.056Z,9.90
2019-03-23T18:20:17.402Z,9.93
2019-03-23T18:22:51.487Z,9.92
2019-03-23T18:25:23.333Z,9.81
2019-03-23T18:27:55.031Z,9.74
2019-03-23T18:30:45.167Z,9.61
2019-03-23T18:33:19.913Z,9.61
2019-03-23T18:35:52.844Z,9.58
2019-03-23T18:38:29.239Z,9.47
2019-03-23T18:41:01.595Z,9.43
2019-03-23T18:43:44.392Z,9.32
2019-03-23T18:46:15.981Z,9.24
2019-03-23T18:48:49.351Z,9.20
2019-03-23T18:51:20.853Z,9.24
2019-03-23T18:53:59.754Z,9.11
2019-03-23T18:56:34.883Z,9.04
2019-03-23T18:59:11.422Z,8.97
2019-03-23T19:01:55.419Z,8.90
2019-03-23T19:04:35.267Z,8.87
2019-03-23T19:07:06.673Z,8.86
2019-03-23T19:09:43.866Z,8.77
2019-03-23T19:12:21.327Z,8.71
2019-03-23T19:15:01.195Z,8.61
2019-03-23T19:17:32.213Z,8.59
2019-03-23T19:20:04.550Z,8.53
2019-03-23T19:22:44.338Z,8.44
2019-03-23T19:25:19.494Z,8.38
2019-03-23T19:27:51.447Z,8.40
2019-03-23T19:30:28.118Z,8.38
2019-03-23T19:33:00.621Z,8.32
2019-03-23T19:35:36.172Z,8.26
2019-03-23T19:38:23.476Z,8.22
2019-03-23T19:41:01.755Z,8.16
2019-03-23T19:43:48.925Z,8.18
2019-03-23T19:46:20.180Z,8.20
2019-03-23T19:48:54.852Z,8.23
2019-03-23T19:51:26.557Z,8.19
2019-03-23T19:53:58.818Z,8.14
2019-03-23T19:56:42.752Z,8.16
2019-03-23T19:59:22.298Z,8.12
2019-03-23T20:01:57.312Z,8.15
2019-03-23T20:04:28.700Z,8.20
2019-03-23T20:07:06.316Z,8.23
2019-03-23T20:09:41.746Z,8.09
2019-03-23T20:12:15.038Z,8.00
2019-03-23T20:14:49.493Z,8.10
2019-03-23T20:17:24.465Z,8.06
2019-03-23T20:19:57.568Z,8.05
2019-03-23T20:22:29.178Z,8.00
2019-03-23T20:25:04.142Z,7.98
2019-03-23T20:27:35.841Z,7.89
2019-03-23T20:30:08.729Z,7.92
2019-03-23T20:32:46.533Z,8.02
2019-03-23T20:35:19.007Z,8.06
2019-03-23T20:37:53.455Z,8.14
2019-03-23T20:40:26.713Z,8.09
2019-03-23T20:43:07.533Z,8.05
2019-03-23T20:45:41.477Z,7.96
2019-03-23T20:48:15.736Z,7.87
2019-03-23T20:50:50.007Z,7.87
2019-03-23T20:53:23.670Z,7.83
2019-03-23T20:55:56.621Z,7.82
2019-03-23T20:58:29.797Z,7.83
2019-03-23T21:01:12.734Z,7.86
2019-03-23T21:03:53.901Z,7.86
2019-03-23T21:06:27.556Z,7.77
2019-03-23T21:08:59.221Z,7.66
2019-03-23T21:11:32.412Z,7.58
2019-03-23T21:14:04.162Z,7.61
2019-03-23T21:16:46.701Z,7.58
2019-03-23T21:19:18.074Z,7.65
2019-03-23T21:21:51.271Z,7.60
2019-03-23T21:24:24.370Z,7.56
2019-03-23T21:26:56.979Z,7.55
2019-03-23T21:29:28.662Z,7.58
2019-03-23T21:32:03.247Z,7.56
2019-03-23T21:34:41.525Z,7.48
2019-03-23T21:37:20.013Z,7.49
2019-03-23T21:39:57.417Z,7.48
2019-03-23T21:42:29.363Z,7.51
2019-03-23T21:45:05.101Z,7.49
2019-03-23T21:47:58.845Z,7.44
2019-03-23T21:54:26.596Z,7.29
2019-03-23T21:56:59.195Z,7.20
2019-03-23T21:59:33.895Z,7.16
2019-03-23T22:02:05.238Z,7.21
2019-03-23T22:04:39.239Z,7.15
2019-03-23T22:07:13.657Z,7.14
2019-03-23T22:09:57.684Z,7.22
2019-03-23T22:12:36.239Z,7.27
2019-03-23T22:15:10.555Z,7.24
2019-03-23T22:17:42.254Z,7.21
2019-03-23T22:20:14.624Z,7.22
2019-03-23T22:22:46.137Z,7.25
2019-03-23T22:25:22.278Z,7.27
2019-03-23T22:27:58.039Z,7.38
2019-03-23T22:30:31.163Z,7.35
2019-03-23T22:33:03.213Z,7.36
2019-03-23T22:35:34.640Z,7.30
2019-03-23T22:38:09.615Z,7.26
2019-03-23T22:40:42.520Z,7.23
2019-03-23T22:43:18.125Z,7.22
2019-03-23T22:45:51.772Z,7.32
2019-03-23T22:48:24.532Z,7.40
2019-03-23T22:50:59.446Z,7.41
2019-03-23T22:53:31.049Z,7.42
2019-03-23T22:56:04.417Z,7.38
2019-03-23T22:58:38.839Z,7.30
2019-03-23T23:01:10.404Z,7.28
2019-03-23T23:03:42.070Z,7.18
2019-03-23T23:06:14.499Z,7.23
2019-03-23T23:08:45.886Z,7.20
2019-03-23T23:11:17.286Z,7.17
2019-03-23T23:13:48.699Z,7.18
2019-03-23T23:16:20.114Z,7.16
2019-03-23T23:18:51.458Z,7.19
2019-03-23T23:21:22.963Z,7.20
2019-03-23T23:23:54.379Z,7.18
2019-03-23T23:26:27.806Z,7.19
2019-03-23T23:29:02.748Z,7.15
2019-03-23T23:31:34.113Z,7.16
2019-03-23T23:34:06.788Z,7.07
2019-03-23T23:36:39.567Z,7.02
2019-03-23T23:39:13.233Z,7.02
2019-03-23T23:41:47.682Z,7.02
2019-03-23T23:44:22.532Z,7.02
2019-03-23T23:46:55.299Z,7.05
2019-03-23T23:49:26.957Z,7.00
2019-03-23T23:51:59.577Z,7.04
2019-03-23T23:54:31.347Z,7.07
2019-03-23T23:57:05.951Z,7.03
2019-03-23T23:59:37.248Z,7.07
